sensor_id;sensor_type;location;lat;lon;timestamp;P1;durP1;ratioP1;P2;durP2;ratioP2
75007;SDS011;63554;48.940;12.050;2022-10-15T00:02:58;3.35;;;1.42;;
75007;SDS011;63554;48.940;12.050;2022-10-15T00:08:03;2.00;;;1.25;;
75007;SDS011;63554;48.940;12.050;2022-10-15T00:13:06;3.17;;;1.63;;
75007;SDS011;63554;48.940;12.050;2022-10-15T00:18:09;1.92;;;1.25;;
75007;SDS011;63554;48.940;12.050;2022-10-15T00:23:13;1.65;;;0.93;;
75007;SDS011;63554;48.940;12.050;2022-10-15T00:28:16;1.33;;;1.23;;
75007;SDS011;63554;48.940;12.050;2022-10-15T00:33:19;1.63;;;1.08;;
75007;SDS011;63554;48.940;12.050;2022-10-15T00:38:24;1.98;;;1.20;;
75007;SDS011;63554;48.940;12.050;2022-10-15T00:43:37;1.80;;;1.40;;
75007;SDS011;63554;48.940;12.050;2022-10-15T00:48:41;1.85;;;1.20;;
75007;SDS011;63554;48.940;12.050;2022-10-15T00:53:47;2.15;;;1.27;;
75007;SDS011;63554;48.940;12.050;2022-10-15T00:58:51;1.60;;;1.27;;
75007;SDS011;63554;48.940;12.050;2022-10-15T01:03:56;3.13;;;1.40;;
75007;SDS011;63554;48.940;12.050;2022-10-15T01:09:01;1.77;;;1.02;;
75007;SDS011;63554;48.940;12.050;2022-10-15T01:14:10;2.30;;;1.25;;
75007;SDS011;63554;48.940;12.050;2022-10-15T01:19:25;2.05;;;1.55;;
75007;SDS011;63554;48.940;12.050;2022-10-15T01:24:50;1.80;;;1.00;;
75007;SDS011;63554;48.940;12.050;2022-10-15T01:30:19;1.42;;;1.15;;
75007;SDS011;63554;48.940;12.050;2022-10-15T01:35:26;1.67;;;1.05;;
75007;SDS011;63554;48.940;12.050;2022-10-15T01:40:35;0.88;;;0.70;;
75007;SDS011;63554;48.940;12.050;2022-10-15T01:45:50;1.27;;;0.80;;
75007;SDS011;63554;48.940;12.050;2022-10-15T01:50:58;1.70;;;0.75;;
75007;SDS011;63554;48.940;12.050;2022-10-15T01:56:04;3.00;;;0.65;;
75007;SDS011;63554;48.940;12.050;2022-10-15T02:01:12;1.73;;;0.57;;
75007;SDS011;63554;48.940;12.050;2022-10-15T02:06:17;0.52;;;0.40;;
75007;SDS011;63554;48.940;12.050;2022-10-15T02:11:23;0.73;;;0.35;;
75007;SDS011;63554;48.940;12.050;2022-10-15T02:16:28;0.88;;;0.60;;
75007;SDS011;63554;48.940;12.050;2022-10-15T02:21:37;1.58;;;0.60;;
75007;SDS011;63554;48.940;12.050;2022-10-15T02:26:44;1.20;;;0.40;;
75007;SDS011;63554;48.940;12.050;2022-10-15T02:31:49;0.57;;;0.30;;
75007;SDS011;63554;48.940;12.050;2022-10-15T02:36:54;0.40;;;0.40;;
75007;SDS011;63554;48.940;12.050;2022-10-15T02:42:02;1.70;;;0.45;;
75007;SDS011;63554;48.940;12.050;2022-10-15T02:47:07;0.30;;;0.20;;
75007;SDS011;63554;48.940;12.050;2022-10-15T02:52:11;3.08;;;1.85;;
75007;SDS011;63554;48.940;12.050;2022-10-15T02:57:14;0.95;;;0.30;;
75007;SDS011;63554;48.940;12.050;2022-10-15T03:02:18;0.93;;;0.45;;
75007;SDS011;63554;48.940;12.050;2022-10-15T03:07:21;0.52;;;0.30;;
75007;SDS011;63554;48.940;12.050;2022-10-15T03:12:25;1.05;;;1.00;;
75007;SDS011;63554;48.940;12.050;2022-10-15T03:17:29;0.30;;;0.30;;
75007;SDS011;63554;48.940;12.050;2022-10-15T03:22:32;0.32;;;0.30;;
75007;SDS011;63554;48.940;12.050;2022-10-15T03:27:35;0.20;;;0.20;;
75007;SDS011;63554;48.940;12.050;2022-10-15T03:32:39;0.88;;;0.30;;
75007;SDS011;63554;48.940;12.050;2022-10-15T03:37:43;0.30;;;0.20;;
75007;SDS011;63554;48.940;12.050;2022-10-15T03:42:48;0.70;;;0.30;;
75007;SDS011;63554;48.940;12.050;2022-10-15T03:47:53;0.30;;;0.30;;
75007;SDS011;63554;48.940;12.050;2022-10-15T03:52:56;0.35;;;0.35;;
75007;SDS011;63554;48.940;12.050;2022-10-15T03:57:59;0.57;;;0.57;;
75007;SDS011;63554;48.940;12.050;2022-10-15T04:03:03;0.35;;;0.35;;
75007;SDS011;63554;48.940;12.050;2022-10-15T04:08:06;0.60;;;0.47;;
75007;SDS011;63554;48.940;12.050;2022-10-15T04:13:09;0.57;;;0.25;;
75007;SDS011;63554;48.940;12.050;2022-10-15T04:18:14;0.40;;;0.40;;
75007;SDS011;63554;48.940;12.050;2022-10-15T04:23:16;0.40;;;0.40;;
75007;SDS011;63554;48.940;12.050;2022-10-15T04:28:19;1.02;;;0.25;;
75007;SDS011;63554;48.940;12.050;2022-10-15T04:33:24;0.52;;;0.47;;
75007;SDS011;63554;48.940;12.050;2022-10-15T04:38:27;0.55;;;0.40;;
75007;SDS011;63554;48.940;12.050;2022-10-15T04:43:30;1.92;;;1.25;;
75007;SDS011;63554;48.940;12.050;2022-10-15T04:48:36;0.60;;;0.50;;
75007;SDS011;63554;48.940;12.050;2022-10-15T04:53:43;0.90;;;0.50;;
75007;SDS011;63554;48.940;12.050;2022-10-15T04:58:47;0.20;;;0.20;;
75007;SDS011;63554;48.940;12.050;2022-10-15T05:03:52;0.30;;;0.30;;
75007;SDS011;63554;48.940;12.050;2022-10-15T05:08:55;0.30;;;0.30;;
75007;SDS011;63554;48.940;12.050;2022-10-15T05:13:58;0.65;;;0.28;;
75007;SDS011;63554;48.940;12.050;2022-10-15T05:19:03;0.88;;;0.32;;
75007;SDS011;63554;48.940;12.050;2022-10-15T05:24:07;0.85;;;0.30;;
75007;SDS011;63554;48.940;12.050;2022-10-15T05:29:10;0.93;;;0.30;;
75007;SDS011;63554;48.940;12.050;2022-10-15T05:34:15;0.35;;;0.32;;
75007;SDS011;63554;48.940;12.050;2022-10-15T05:39:18;0.60;;;0.38;;
75007;SDS011;63554;48.940;12.050;2022-10-15T05:44:21;0.93;;;0.50;;
75007;SDS011;63554;48.940;12.050;2022-10-15T05:49:25;0.30;;;0.30;;
75007;SDS011;63554;48.940;12.050;2022-10-15T05:54:29;0.40;;;0.30;;
75007;SDS011;63554;48.940;12.050;2022-10-15T05:59:31;0.40;;;0.32;;
75007;SDS011;63554;48.940;12.050;2022-10-15T06:04:36;0.93;;;0.73;;
75007;SDS011;63554;48.940;12.050;2022-10-15T06:09:39;1.85;;;0.68;;
75007;SDS011;63554;48.940;12.050;2022-10-15T06:14:42;0.30;;;0.30;;
75007;SDS011;63554;48.940;12.050;2022-10-15T06:19:46;0.77;;;0.68;;
75007;SDS011;63554;48.940;12.050;2022-10-15T06:24:49;2.78;;;0.93;;
75007;SDS011;63554;48.940;12.050;2022-10-15T06:29:53;0.80;;;0.50;;
75007;SDS011;63554;48.940;12.050;2022-10-15T06:34:57;1.25;;;0.52;;
75007;SDS011;63554;48.940;12.050;2022-10-15T06:40:00;0.77;;;0.50;;
75007;SDS011;63554;48.940;12.050;2022-10-15T06:45:04;2.65;;;0.60;;
75007;SDS011;63554;48.940;12.050;2022-10-15T06:50:09;1.20;;;0.70;;
75007;SDS011;63554;48.940;12.050;2022-10-15T06:55:12;0.90;;;0.60;;
75007;SDS011;63554;48.940;12.050;2022-10-15T07:00:15;3.28;;;0.85;;
75007;SDS011;63554;48.940;12.050;2022-10-15T07:05:20;0.90;;;0.80;;
75007;SDS011;63554;48.940;12.050;2022-10-15T07:10:24;0.93;;;0.40;;
75007;SDS011;63554;48.940;12.050;2022-10-15T07:15:28;1.45;;;0.80;;
75007;SDS011;63554;48.940;12.050;2022-10-15T07:20:32;1.02;;;0.52;;
75007;SDS011;63554;48.940;12.050;2022-10-15T07:25:35;0.80;;;0.80;;
75007;SDS011;63554;48.940;12.050;2022-10-15T07:30:39;1.17;;;0.88;;
75007;SDS011;63554;48.940;12.050;2022-10-15T07:35:43;1.00;;;0.90;;
75007;SDS011;63554;48.940;12.050;2022-10-15T07:40:47;1.63;;;1.05;;
75007;SDS011;63554;48.940;12.050;2022-10-15T07:45:50;1.90;;;0.80;;
75007;SDS011;63554;48.940;12.050;2022-10-15T07:50:54;1.05;;;0.45;;
75007;SDS011;63554;48.940;12.050;2022-10-15T07:55:58;1.70;;;0.80;;
75007;SDS011;63554;48.940;12.050;2022-10-15T08:01:02;0.60;;;0.57;;
75007;SDS011;63554;48.940;12.050;2022-10-15T08:06:07;1.23;;;0.60;;
75007;SDS011;63554;48.940;12.050;2022-10-15T08:11:11;1.02;;;0.40;;
75007;SDS011;63554;48.940;12.050;2022-10-15T08:16:16;1.38;;;0.60;;
75007;SDS011;63554;48.940;12.050;2022-10-15T08:21:21;0.73;;;0.55;;
75007;SDS011;63554;48.940;12.050;2022-10-15T08:26:24;2.13;;;0.73;;
75007;SDS011;63554;48.940;12.050;2022-10-15T08:31:27;2.45;;;0.73;;
75007;SDS011;63554;48.940;12.050;2022-10-15T08:36:33;0.65;;;0.45;;
75007;SDS011;63554;48.940;12.050;2022-10-15T08:41:37;1.77;;;0.60;;
75007;SDS011;63554;48.940;12.050;2022-10-15T08:46:44;1.13;;;0.82;;
75007;SDS011;63554;48.940;12.050;2022-10-15T08:51:52;2.17;;;0.93;;
75007;SDS011;63554;48.940;12.050;2022-10-15T08:57:02;0.90;;;0.85;;
75007;SDS011;63554;48.940;12.050;2022-10-15T09:02:12;1.52;;;0.90;;
75007;SDS011;63554;48.940;12.050;2022-10-15T09:07:23;2.72;;;1.17;;
75007;SDS011;63554;48.940;12.050;2022-10-15T09:12:35;1.23;;;0.93;;
75007;SDS011;63554;48.940;12.050;2022-10-15T09:17:48;1.52;;;1.10;;
75007;SDS011;63554;48.940;12.050;2022-10-15T09:22:56;3.50;;;1.50;;
75007;SDS011;63554;48.940;12.050;2022-10-15T09:28:00;1.42;;;1.02;;
75007;SDS011;63554;48.940;12.050;2022-10-15T09:33:12;1.08;;;0.98;;
75007;SDS011;63554;48.940;12.050;2022-10-15T09:38:26;1.27;;;1.00;;
75007;SDS011;63554;48.940;12.050;2022-10-15T09:43:36;1.90;;;1.05;;
75007;SDS011;63554;48.940;12.050;2022-10-15T09:48:43;1.13;;;0.68;;
75007;SDS011;63554;48.940;12.050;2022-10-15T09:53:51;1.45;;;0.80;;
75007;SDS011;63554;48.940;12.050;2022-10-15T09:59:01;2.10;;;0.77;;
75007;SDS011;63554;48.940;12.050;2022-10-15T10:04:11;1.33;;;0.77;;
75007;SDS011;63554;48.940;12.050;2022-10-15T10:09:18;0.88;;;0.47;;
75007;SDS011;63554;48.940;12.050;2022-10-15T10:14:24;0.65;;;0.60;;
75007;SDS011;63554;48.940;12.050;2022-10-15T10:19:30;1.17;;;0.50;;
75007;SDS011;63554;48.940;12.050;2022-10-15T10:24:34;1.35;;;0.50;;
75007;SDS011;63554;48.940;12.050;2022-10-15T10:29:38;1.33;;;0.47;;
75007;SDS011;63554;48.940;12.050;2022-10-15T10:34:44;1.58;;;0.43;;
75007;SDS011;63554;48.940;12.050;2022-10-15T10:39:55;0.40;;;0.40;;
75007;SDS011;63554;48.940;12.050;2022-10-15T10:45:16;0.40;;;0.40;;
75007;SDS011;63554;48.940;12.050;2022-10-15T10:50:26;0.82;;;0.40;;
75007;SDS011;63554;48.940;12.050;2022-10-15T10:55:36;0.30;;;0.30;;
75007;SDS011;63554;48.940;12.050;2022-10-15T11:00:41;0.60;;;0.50;;
75007;SDS011;63554;48.940;12.050;2022-10-15T11:05:45;0.45;;;0.40;;
75007;SDS011;63554;48.940;12.050;2022-10-15T11:10:52;0.43;;;0.43;;
75007;SDS011;63554;48.940;12.050;2022-10-15T11:16:02;0.35;;;0.32;;
75007;SDS011;63554;48.940;12.050;2022-10-15T11:21:13;0.77;;;0.55;;
75007;SDS011;63554;48.940;12.050;2022-10-15T11:26:29;0.50;;;0.30;;
75007;SDS011;63554;48.940;12.050;2022-10-15T11:32:01;0.68;;;0.40;;
75007;SDS011;63554;48.940;12.050;2022-10-15T11:37:20;0.55;;;0.20;;
75007;SDS011;63554;48.940;12.050;2022-10-15T11:42:36;0.55;;;0.50;;
75007;SDS011;63554;48.940;12.050;2022-10-15T11:47:49;0.20;;;0.20;;
75007;SDS011;63554;48.940;12.050;2022-10-15T11:53:07;0.80;;;0.30;;
75007;SDS011;63554;48.940;12.050;2022-10-15T11:58:31;0.30;;;0.30;;
75007;SDS011;63554;48.940;12.050;2022-10-15T12:03:38;0.50;;;0.10;;
75007;SDS011;63554;48.940;12.050;2022-10-15T12:08:48;0.20;;;0.20;;
75007;SDS011;63554;48.940;12.050;2022-10-15T12:13:55;2.65;;;0.50;;
75007;SDS011;63554;48.940;12.050;2022-10-15T12:19:08;0.70;;;0.30;;
75007;SDS011;63554;48.940;12.050;2022-10-15T12:35:27;0.45;;;0.45;;
75007;SDS011;63554;48.940;12.050;2022-10-15T12:40:34;0.40;;;0.20;;
75007;SDS011;63554;48.940;12.050;2022-10-15T12:45:48;1.17;;;0.20;;
75007;SDS011;63554;48.940;12.050;2022-10-15T12:56:34;1.35;;;0.30;;
75007;SDS011;63554;48.940;12.050;2022-10-15T13:01:50;0.52;;;0.30;;
75007;SDS011;63554;48.940;12.050;2022-10-15T13:06:53;0.32;;;0.30;;
75007;SDS011;63554;48.940;12.050;2022-10-15T13:12:05;0.75;;;0.50;;
75007;SDS011;63554;48.940;12.050;2022-10-15T13:17:20;1.02;;;0.57;;
75007;SDS011;63554;48.940;12.050;2022-10-15T13:22:24;1.50;;;0.40;;
75007;SDS011;63554;48.940;12.050;2022-10-15T13:27:30;1.02;;;0.65;;
75007;SDS011;63554;48.940;12.050;2022-10-15T13:32:35;1.08;;;0.70;;
75007;SDS011;63554;48.940;12.050;2022-10-15T13:37:44;1.20;;;0.60;;
75007;SDS011;63554;48.940;12.050;2022-10-15T13:42:57;1.00;;;0.63;;
75007;SDS011;63554;48.940;12.050;2022-10-15T13:48:02;1.65;;;0.40;;
75007;SDS011;63554;48.940;12.050;2022-10-15T13:53:13;0.45;;;0.20;;
75007;SDS011;63554;48.940;12.050;2022-10-15T13:58:24;0.40;;;0.20;;
75007;SDS011;63554;48.940;12.050;2022-10-15T14:03:31;1.17;;;0.30;;
75007;SDS011;63554;48.940;12.050;2022-10-15T14:08:36;5.15;;;2.80;;
75007;SDS011;63554;48.940;12.050;2022-10-15T14:13:42;0.40;;;0.30;;
75007;SDS011;63554;48.940;12.050;2022-10-15T14:18:48;0.60;;;0.40;;
75007;SDS011;63554;48.940;12.050;2022-10-15T14:24:01;0.80;;;0.30;;
75007;SDS011;63554;48.940;12.050;2022-10-15T14:29:12;0.50;;;0.30;;
75007;SDS011;63554;48.940;12.050;2022-10-15T14:34:25;0.38;;;0.20;;
75007;SDS011;63554;48.940;12.050;2022-10-15T14:39:33;0.40;;;0.30;;
75007;SDS011;63554;48.940;12.050;2022-10-15T14:44:41;4.63;;;2.20;;
75007;SDS011;63554;48.940;12.050;2022-10-15T14:49:46;1.10;;;0.30;;
75007;SDS011;63554;48.940;12.050;2022-10-15T14:54:56;2.60;;;0.30;;
75007;SDS011;63554;48.940;12.050;2022-10-15T15:00:04;0.55;;;0.40;;
75007;SDS011;63554;48.940;12.050;2022-10-15T15:05:18;2.53;;;0.43;;
75007;SDS011;63554;48.940;12.050;2022-10-15T15:10:24;1.77;;;0.60;;
75007;SDS011;63554;48.940;12.050;2022-10-15T15:15:28;0.70;;;0.30;;
75007;SDS011;63554;48.940;12.050;2022-10-15T15:20:32;2.22;;;0.60;;
75007;SDS011;63554;48.940;12.050;2022-10-15T15:25:35;2.17;;;1.70;;
75007;SDS011;63554;48.940;12.050;2022-10-15T15:30:39;1.85;;;0.80;;
75007;SDS011;63554;48.940;12.050;2022-10-15T15:35:46;1.20;;;0.52;;
75007;SDS011;63554;48.940;12.050;2022-10-15T15:40:52;0.75;;;0.55;;
75007;SDS011;63554;48.940;12.050;2022-10-15T15:45:55;1.88;;;0.50;;
75007;SDS011;63554;48.940;12.050;2022-10-15T15:51:00;5.90;;;2.00;;
75007;SDS011;63554;48.940;12.050;2022-10-15T15:56:05;0.98;;;0.60;;
75007;SDS011;63554;48.940;12.050;2022-10-15T16:01:08;2.40;;;0.90;;
75007;SDS011;63554;48.940;12.050;2022-10-15T16:06:13;2.97;;;1.25;;
75007;SDS011;63554;48.940;12.050;2022-10-15T16:11:16;6.18;;;1.90;;
75007;SDS011;63554;48.940;12.050;2022-10-15T16:16:19;15.07;;;5.63;;
75007;SDS011;63554;48.940;12.050;2022-10-15T16:21:23;7.85;;;3.00;;
75007;SDS011;63554;48.940;12.050;2022-10-15T16:26:28;6.35;;;3.03;;
75007;SDS011;63554;48.940;12.050;2022-10-15T16:31:31;5.60;;;2.67;;
75007;SDS011;63554;48.940;12.050;2022-10-15T16:36:38;3.63;;;1.90;;
75007;SDS011;63554;48.940;12.050;2022-10-15T16:41:41;1.95;;;1.33;;
75007;SDS011;63554;48.940;12.050;2022-10-15T16:46:44;3.50;;;2.38;;
75007;SDS011;63554;48.940;12.050;2022-10-15T16:51:49;2.47;;;1.60;;
75007;SDS011;63554;48.940;12.050;2022-10-15T16:56:52;3.50;;;1.58;;
75007;SDS011;63554;48.940;12.050;2022-10-15T17:01:55;5.00;;;2.13;;
75007;SDS011;63554;48.940;12.050;2022-10-15T17:06:59;1.45;;;1.10;;
75007;SDS011;63554;48.940;12.050;2022-10-15T17:12:03;2.70;;;1.77;;
75007;SDS011;63554;48.940;12.050;2022-10-15T17:17:06;5.00;;;2.00;;
75007;SDS011;63554;48.940;12.050;2022-10-15T17:22:11;2.70;;;1.73;;
75007;SDS011;63554;48.940;12.050;2022-10-15T17:27:15;1.95;;;1.30;;
75007;SDS011;63554;48.940;12.050;2022-10-15T17:32:18;2.83;;;1.65;;
75007;SDS011;63554;48.940;12.050;2022-10-15T17:37:23;3.30;;;2.05;;
75007;SDS011;63554;48.940;12.050;2022-10-15T17:42:26;7.00;;;2.95;;
75007;SDS011;63554;48.940;12.050;2022-10-15T17:47:29;2.22;;;1.85;;
75007;SDS011;63554;48.940;12.050;2022-10-15T17:52:33;27.88;;;17.60;;
75007;SDS011;63554;48.940;12.050;2022-10-15T17:57:36;40.33;;;27.30;;
75007;SDS011;63554;48.940;12.050;2022-10-15T18:02:39;6.57;;;5.32;;
75007;SDS011;63554;48.940;12.050;2022-10-15T18:07:44;8.55;;;3.97;;
75007;SDS011;63554;48.940;12.050;2022-10-15T18:12:47;8.00;;;4.68;;
75007;SDS011;63554;48.940;12.050;2022-10-15T18:17:51;5.28;;;3.67;;
75007;SDS011;63554;48.940;12.050;2022-10-15T18:22:55;5.47;;;3.25;;
75007;SDS011;63554;48.940;12.050;2022-10-15T18:27:58;9.25;;;4.40;;
75007;SDS011;63554;48.940;12.050;2022-10-15T18:33:01;4.43;;;3.15;;
75007;SDS011;63554;48.940;12.050;2022-10-15T18:38:06;9.82;;;5.55;;
75007;SDS011;63554;48.940;12.050;2022-10-15T18:43:09;9.75;;;4.78;;
75007;SDS011;63554;48.940;12.050;2022-10-15T18:48:16;5.13;;;3.45;;
75007;SDS011;63554;48.940;12.050;2022-10-15T18:53:20;5.53;;;3.78;;
75007;SDS011;63554;48.940;12.050;2022-10-15T18:58:25;7.65;;;5.15;;
75007;SDS011;63554;48.940;12.050;2022-10-15T19:03:28;8.32;;;4.70;;
75007;SDS011;63554;48.940;12.050;2022-10-15T19:08:33;11.30;;;4.53;;
75007;SDS011;63554;48.940;12.050;2022-10-15T19:13:36;5.05;;;3.03;;
75007;SDS011;63554;48.940;12.050;2022-10-15T19:18:40;5.03;;;3.45;;
75007;SDS011;63554;48.940;12.050;2022-10-15T19:23:44;5.85;;;2.67;;
75007;SDS011;63554;48.940;12.050;2022-10-15T19:28:47;6.05;;;3.63;;
75007;SDS011;63554;48.940;12.050;2022-10-15T19:33:52;6.25;;;3.08;;
75007;SDS011;63554;48.940;12.050;2022-10-15T19:38:58;5.35;;;2.63;;
75007;SDS011;63554;48.940;12.050;2022-10-15T19:44:02;4.93;;;2.65;;
75007;SDS011;63554;48.940;12.050;2022-10-15T19:49:09;3.00;;;2.00;;
75007;SDS011;63554;48.940;12.050;2022-10-15T19:54:15;3.20;;;2.15;;
75007;SDS011;63554;48.940;12.050;2022-10-15T19:59:18;3.63;;;2.67;;
75007;SDS011;63554;48.940;12.050;2022-10-15T20:04:21;2.95;;;1.98;;
75007;SDS011;63554;48.940;12.050;2022-10-15T20:09:25;2.67;;;2.05;;
75007;SDS011;63554;48.940;12.050;2022-10-15T20:14:28;2.03;;;1.48;;
75007;SDS011;63554;48.940;12.050;2022-10-15T20:19:31;3.15;;;1.92;;
75007;SDS011;63554;48.940;12.050;2022-10-15T20:24:36;3.83;;;1.42;;
75007;SDS011;63554;48.940;12.050;2022-10-15T20:29:39;2.90;;;1.83;;
75007;SDS011;63554;48.940;12.050;2022-10-15T20:34:42;2.15;;;1.50;;
75007;SDS011;63554;48.940;12.050;2022-10-15T20:39:46;5.28;;;1.83;;
75007;SDS011;63554;48.940;12.050;2022-10-15T20:44:49;8.52;;;1.83;;
75007;SDS011;63554;48.940;12.050;2022-10-15T20:49:53;2.35;;;1.48;;
75007;SDS011;63554;48.940;12.050;2022-10-15T20:54:57;5.70;;;1.55;;
75007;SDS011;63554;48.940;12.050;2022-10-15T21:00:01;7.07;;;2.22;;
75007;SDS011;63554;48.940;12.050;2022-10-15T21:05:06;2.42;;;1.48;;
75007;SDS011;63554;48.940;12.050;2022-10-15T21:10:11;2.05;;;1.25;;
75007;SDS011;63554;48.940;12.050;2022-10-15T21:15:14;1.35;;;1.23;;
75007;SDS011;63554;48.940;12.050;2022-10-15T21:20:17;3.45;;;1.67;;
75007;SDS011;63554;48.940;12.050;2022-10-15T21:25:22;1.50;;;1.23;;
75007;SDS011;63554;48.940;12.050;2022-10-15T21:30:25;1.98;;;1.27;;
75007;SDS011;63554;48.940;12.050;2022-10-15T21:35:28;2.33;;;1.33;;
75007;SDS011;63554;48.940;12.050;2022-10-15T21:40:32;2.92;;;1.23;;
75007;SDS011;63554;48.940;12.050;2022-10-15T21:45:35;3.42;;;1.73;;
75007;SDS011;63554;48.940;12.050;2022-10-15T21:50:38;2.97;;;1.70;;
75007;SDS011;63554;48.940;12.050;2022-10-15T21:55:42;2.60;;;1.73;;
75007;SDS011;63554;48.940;12.050;2022-10-15T22:00:53;6.53;;;2.35;;
75007;SDS011;63554;48.940;12.050;2022-10-15T22:05:57;1.50;;;1.25;;
75007;SDS011;63554;48.940;12.050;2022-10-15T22:11:08;1.25;;;1.10;;
75007;SDS011;63554;48.940;12.050;2022-10-15T22:16:12;3.70;;;1.70;;
75007;SDS011;63554;48.940;12.050;2022-10-15T22:21:17;3.70;;;1.60;;
75007;SDS011;63554;48.940;12.050;2022-10-15T22:26:23;3.03;;;2.30;;
75007;SDS011;63554;48.940;12.050;2022-10-15T22:31:27;2.35;;;1.67;;
75007;SDS011;63554;48.940;12.050;2022-10-15T22:36:31;1.77;;;1.35;;
75007;SDS011;63554;48.940;12.050;2022-10-15T22:41:36;3.33;;;1.60;;
75007;SDS011;63554;48.940;12.050;2022-10-15T22:46:40;1.77;;;1.40;;
75007;SDS011;63554;48.940;12.050;2022-10-15T22:51:46;5.22;;;1.95;;
75007;SDS011;63554;48.940;12.050;2022-10-15T22:56:51;2.10;;;1.67;;
75007;SDS011;63554;48.940;12.050;2022-10-15T23:01:54;2.85;;;1.65;;
75007;SDS011;63554;48.940;12.050;2022-10-15T23:06:57;3.95;;;1.80;;
75007;SDS011;63554;48.940;12.050;2022-10-15T23:12:01;1.83;;;1.20;;
75007;SDS011;63554;48.940;12.050;2022-10-15T23:17:04;2.47;;;1.33;;
75007;SDS011;63554;48.940;12.050;2022-10-15T23:22:07;1.35;;;1.05;;
75007;SDS011;63554;48.940;12.050;2022-10-15T23:27:11;3.30;;;1.27;;
75007;SDS011;63554;48.940;12.050;2022-10-15T23:32:15;4.95;;;1.30;;
75007;SDS011;63554;48.940;12.050;2022-10-15T23:37:18;1.77;;;1.10;;
75007;SDS011;63554;48.940;12.050;2022-10-15T23:42:22;5.68;;;1.42;;
75007;SDS011;63554;48.940;12.050;2022-10-15T23:47:25;6.78;;;1.40;;
75007;SDS011;63554;48.940;12.050;2022-10-15T23:52:29;2.00;;;1.45;;
75007;SDS011;63554;48.940;12.050;2022-10-15T23:57:34;3.83;;;1.58;;
